createdAt,value
2018-02-04T00:00:43.524Z,11.10
2018-02-04T00:03:11.907Z,12.75
2018-02-04T00:05:39.615Z,13.35
2018-02-04T00:08:07.338Z,11.93
2018-02-04T00:10:35.837Z,12.27
2018-02-04T00:13:03.408Z,10.85
2018-02-04T00:15:30.999Z,9.57
2018-02-04T00:17:58.551Z,9.60
2018-02-04T00:20:26.175Z,11.38
2018-02-04T00:22:53.736Z,14.73
2018-02-04T00:25:21.322Z,11.85
2018-02-04T00:27:48.902Z,11.98
2018-02-04T00:30:16.514Z,13.55
2018-02-04T00:32:44.063Z,9.95
2018-02-04T00:35:11.622Z,8.90
2018-02-04T00:37:39.222Z,11.57
2018-02-04T00:40:06.821Z,11.20
2018-02-04T00:42:35.331Z,11.88
2018-02-04T00:45:02.895Z,13.68
2018-02-04T00:47:30.468Z,13.10
2018-02-04T00:49:58.031Z,13.18
2018-02-04T00:52:25.686Z,12.73
2018-02-04T00:54:53.278Z,13.00
2018-02-04T00:57:21.643Z,12.57
2018-02-04T00:59:49.322Z,13.73
2018-02-04T01:02:16.894Z,13.75
2018-02-04T01:04:45.322Z,11.98
2018-02-04T01:07:12.951Z,14.38
2018-02-04T01:09:40.550Z,16.77
2018-02-04T01:12:08.144Z,15.68
2018-02-04T01:14:36.490Z,14.05
2018-02-04T01:17:04.052Z,13.30
2018-02-04T01:19:31.686Z,13.57
2018-02-04T01:21:59.251Z,10.90
2018-02-04T01:24:26.850Z,13.02
2018-02-04T01:26:55.197Z,10.90
2018-02-04T01:29:22.794Z,11.95
2018-02-04T01:31:51.118Z,12.15
2018-02-04T01:34:18.707Z,13.30
2018-02-04T01:36:46.300Z,14.27
2018-02-04T01:39:13.869Z,12.68
2018-02-04T01:41:41.463Z,13.27
2018-02-04T01:44:09.027Z,12.23
2018-02-04T01:46:36.629Z,12.80
2018-02-04T01:49:04.958Z,13.57
2018-02-04T01:51:32.535Z,13.48
2018-02-04T01:54:00.130Z,15.07
2018-02-04T01:56:27.685Z,10.45
2018-02-04T01:58:56.050Z,13.60
2018-02-04T02:01:24.382Z,16.90
2018-02-04T02:03:51.975Z,10.48
2018-02-04T02:06:19.538Z,12.37
2018-02-04T02:08:47.160Z,13.27
2018-02-04T02:11:14.714Z,14.02
2018-02-04T02:13:42.391Z,14.40
2018-02-04T02:16:09.977Z,13.95
2018-02-04T02:18:37.594Z,15.30
2018-02-04T02:21:05.206Z,14.87
2018-02-04T02:23:33.530Z,14.45
2018-02-04T02:26:01.102Z,12.25
2018-02-04T02:28:28.690Z,11.77
2018-02-04T02:30:56.307Z,13.60
2018-02-04T02:33:23.962Z,13.27
2018-02-04T02:35:51.725Z,14.48
2018-02-04T02:38:19.325Z,12.32
2018-02-04T02:40:47.666Z,12.82
2018-02-04T02:43:15.254Z,14.95
2018-02-04T02:45:42.814Z,17.15
2018-02-04T02:48:10.382Z,15.60
2018-02-04T02:50:38.049Z,15.30
2018-02-04T02:53:06.403Z,15.27
2018-02-04T02:55:33.982Z,20.48
2018-02-04T02:58:02.321Z,14.73
2018-02-04T03:00:29.906Z,14.15
2018-02-04T03:02:57.481Z,17.15
2018-02-04T03:05:25.849Z,14.52
2018-02-04T03:07:54.163Z,12.75
2018-02-04T03:10:21.712Z,16.33
2018-02-04T03:12:49.296Z,20.12
2018-02-04T03:15:16.854Z,13.25
2018-02-04T03:17:44.438Z,13.90
2018-02-04T03:20:12.010Z,16.90
2018-02-04T03:22:39.598Z,18.50
2018-02-04T03:25:08.072Z,18.40
2018-02-04T03:27:36.440Z,19.73
2018-02-04T03:30:04.018Z,20.85
2018-02-04T03:32:31.581Z,17.27
2018-02-04T03:34:59.159Z,18.73
2018-02-04T03:37:26.710Z,15.85
2018-02-04T03:39:54.328Z,18.15
2018-02-04T03:42:21.869Z,16.17
2018-02-04T03:44:49.469Z,19.87
2018-02-04T03:47:17.034Z,19.25
2018-02-04T03:49:44.588Z,18.73
2018-02-04T03:52:12.194Z,21.35
2018-02-04T03:54:39.791Z,21.67
2018-02-04T03:57:08.166Z,19.87
2018-02-04T03:59:36.629Z,21.23
2018-02-04T04:02:04.961Z,22.85
2018-02-04T04:04:32.547Z,23.05
2018-02-04T04:07:00.218Z,20.95
2018-02-04T04:09:27.875Z,24.67
2018-02-04T04:11:55.471Z,23.62
2018-02-04T04:14:23.845Z,22.90
2018-02-04T04:16:52.173Z,20.50
2018-02-04T04:19:19.762Z,25.20
2018-02-04T04:21:47.468Z,19.77
2018-02-04T04:24:15.066Z,23.20
2018-02-04T04:26:42.638Z,20.23
2018-02-04T04:29:10.225Z,19.05
2018-02-04T04:31:37.826Z,21.37
2018-02-04T04:34:05.384Z,17.30
2018-02-04T04:36:32.985Z,22.10
2018-02-04T04:39:01.459Z,22.67
2018-02-04T04:41:29.037Z,13.20
2018-02-04T04:43:57.433Z,9.20
2018-02-04T04:46:25.077Z,20.33
2018-02-04T04:48:53.430Z,27.92
2018-02-04T04:51:21.011Z,20.27
2018-02-04T04:53:49.471Z,22.27
2018-02-04T04:56:17.030Z,21.77
2018-02-04T04:58:44.587Z,17.62
2018-02-04T05:01:12.281Z,21.02
2018-02-04T05:03:39.850Z,23.45
2018-02-04T05:06:07.438Z,17.30
2018-02-04T05:08:35.000Z,15.32
2018-02-04T05:11:02.611Z,17.37
2018-02-04T05:13:30.198Z,20.25
2018-02-04T05:15:57.791Z,19.12
2018-02-04T05:18:26.126Z,12.20
2018-02-04T05:20:53.728Z,16.92
2018-02-04T05:23:21.310Z,16.55
2018-02-04T05:25:49.832Z,18.67
2018-02-04T05:28:17.402Z,17.87
2018-02-04T05:30:45.155Z,18.52
2018-02-04T05:33:12.706Z,20.35
2018-02-04T05:35:40.291Z,16.27
2018-02-04T05:38:07.862Z,19.08
2018-02-04T05:40:35.454Z,16.60
2018-02-04T05:43:03.874Z,17.80
2018-02-04T05:45:31.569Z,20.50
2018-02-04T05:47:59.122Z,16.65
2018-02-04T05:50:26.707Z,16.75
2018-02-04T05:52:55.039Z,16.55
2018-02-04T05:55:22.619Z,17.27
2018-02-04T05:57:50.207Z,15.55
2018-02-04T06:00:17.762Z,20.65
2018-02-04T06:02:46.113Z,14.57
2018-02-04T06:05:13.665Z,15.68
2018-02-04T06:07:41.242Z,15.35
2018-02-04T06:10:09.580Z,15.93
2018-02-04T06:12:37.158Z,17.33
2018-02-04T06:15:04.710Z,15.00
2018-02-04T06:17:32.303Z,18.33
2018-02-04T06:20:00.622Z,15.80
2018-02-04T06:22:28.194Z,17.27
2018-02-04T06:24:55.802Z,24.00
2018-02-04T06:27:24.154Z,20.23
2018-02-04T06:29:52.498Z,20.20
2018-02-04T06:32:20.065Z,27.37
2018-02-04T06:34:47.783Z,25.52
2018-02-04T06:37:15.346Z,21.15
2018-02-04T06:39:42.914Z,22.15
2018-02-04T06:42:10.527Z,22.00
2018-02-04T06:44:38.086Z,23.58
2018-02-04T06:47:05.718Z,20.88
2018-02-04T06:49:33.274Z,20.20
2018-02-04T06:52:00.922Z,23.75
2018-02-04T06:54:28.590Z,21.12
2018-02-04T06:56:56.186Z,28.42
2018-02-04T06:59:23.766Z,23.12
2018-02-04T07:01:52.090Z,28.65
2018-02-04T07:04:19.774Z,18.12
2018-02-04T07:06:47.334Z,17.95
2018-02-04T07:09:15.063Z,19.25
2018-02-04T07:11:42.658Z,26.12
2018-02-04T07:14:10.218Z,18.85
2018-02-04T07:16:37.822Z,19.98
2018-02-04T07:19:05.386Z,20.12
2018-02-04T07:21:32.963Z,19.15
2018-02-04T07:24:00.562Z,18.70
2018-02-04T07:26:28.902Z,17.40
2018-02-04T07:28:56.506Z,15.95
2018-02-04T07:31:24.827Z,15.05
2018-02-04T07:33:52.426Z,15.15
2018-02-04T07:36:20.771Z,17.37
2018-02-04T07:38:48.462Z,15.80
2018-02-04T07:41:16.127Z,17.75
2018-02-04T07:43:43.678Z,16.65
2018-02-04T07:46:11.267Z,14.50
2018-02-04T07:48:38.828Z,14.48
2018-02-04T07:51:06.458Z,13.45
2018-02-04T07:53:34.042Z,13.70
2018-02-04T07:56:01.702Z,15.23
2018-02-04T07:58:29.287Z,15.35
2018-02-04T08:00:56.842Z,15.63
2018-02-04T08:03:24.503Z,15.18
2018-02-04T08:05:52.078Z,17.37
2018-02-04T08:08:19.637Z,15.93
2018-02-04T08:10:47.217Z,15.98
2018-02-04T08:13:16.307Z,16.35
2018-02-04T08:15:43.870Z,14.35
2018-02-04T08:18:11.550Z,15.15
2018-02-04T08:20:39.986Z,19.23
2018-02-04T08:23:07.658Z,16.48
2018-02-04T08:25:35.350Z,16.02
2018-02-04T08:28:03.682Z,18.48
2018-02-04T08:30:31.270Z,23.60
2018-02-04T08:32:58.834Z,18.98
2018-02-04T08:35:26.422Z,16.62
2018-02-04T08:37:54.116Z,19.25
2018-02-04T08:40:21.682Z,16.48
2018-02-04T08:42:49.298Z,18.35
2018-02-04T08:45:17.635Z,17.67
2018-02-04T08:47:46.010Z,17.50
2018-02-04T08:50:14.478Z,17.45
2018-02-04T08:52:42.229Z,19.48
2018-02-04T08:55:09.839Z,17.02
2018-02-04T08:57:38.194Z,20.60
2018-02-04T09:00:05.791Z,19.90
2018-02-04T09:02:34.138Z,16.47
2018-02-04T09:05:01.750Z,17.97
2018-02-04T09:07:29.326Z,17.33
2018-02-04T09:09:56.943Z,18.23
2018-02-04T09:12:25.275Z,22.33
2018-02-04T09:14:52.858Z,17.33
2018-02-04T09:17:21.193Z,15.07
2018-02-04T09:19:48.812Z,16.27
2018-02-04T09:22:17.219Z,20.67
2018-02-04T09:24:44.788Z,17.10
2018-02-04T09:27:12.393Z,15.03
2018-02-04T09:29:39.958Z,17.17
2018-02-04T09:32:08.350Z,19.07
2018-02-04T09:34:35.913Z,15.10
2018-02-04T09:37:03.515Z,17.47
2018-02-04T09:39:31.306Z,17.70
2018-02-04T09:41:58.851Z,21.27
2018-02-04T09:44:26.506Z,20.43
2018-02-04T09:46:54.067Z,21.43
2018-02-04T09:49:22.462Z,20.75
2018-02-04T09:51:50.815Z,17.80
2018-02-04T09:54:18.426Z,17.65
2018-02-04T09:56:46.015Z,17.00
2018-02-04T09:59:13.606Z,18.02
2018-02-04T10:01:41.178Z,18.40
2018-02-04T10:04:08.791Z,17.80
2018-02-04T10:06:36.394Z,15.48
2018-02-04T10:09:04.725Z,22.15
2018-02-04T10:11:32.334Z,19.50
2018-02-04T10:14:00.695Z,18.67
2018-02-04T10:16:28.328Z,27.52
2018-02-04T10:18:55.900Z,19.12
2018-02-04T10:21:23.494Z,23.10
2018-02-04T10:23:51.922Z,18.00
2018-02-04T10:26:19.537Z,19.55
2018-02-04T10:28:47.907Z,19.83
2018-02-04T10:31:16.338Z,14.00
2018-02-04T10:33:44.039Z,19.83
2018-02-04T10:36:12.392Z,22.02
2018-02-04T10:38:39.981Z,18.62
2018-02-04T10:41:08.352Z,15.00
2018-02-04T10:43:35.935Z,15.30
2018-02-04T10:46:03.541Z,18.50
2018-02-04T10:48:31.233Z,14.75
2018-02-04T10:51:05.624Z,18.30
2018-02-04T10:53:33.258Z,16.05
2018-02-04T10:56:01.006Z,19.02
2018-02-04T10:58:28.574Z,14.60
2018-02-04T11:00:56.205Z,16.98
2018-02-04T11:03:24.558Z,16.42
2018-02-04T11:05:52.146Z,19.27
2018-02-04T11:08:20.642Z,13.55
2018-02-04T11:10:48.416Z,15.80
2018-02-04T11:13:16.038Z,13.75
2018-02-04T11:15:44.405Z,12.40
2018-02-04T11:18:12.745Z,26.27
2018-02-04T11:20:40.381Z,24.73
2018-02-04T11:23:08.075Z,16.45
2018-02-04T11:25:35.690Z,16.85
2018-02-04T11:28:03.276Z,17.80
2018-02-04T11:30:30.843Z,16.45
2018-02-04T11:32:58.439Z,17.52
2018-02-04T11:35:26.846Z,14.80
2018-02-04T11:37:54.442Z,17.65
2018-02-04T11:40:22.032Z,15.57
2018-02-04T11:42:49.632Z,13.45
2018-02-04T11:45:17.331Z,13.20
2018-02-04T11:47:44.934Z,18.53
2018-02-04T11:50:13.416Z,20.10
2018-02-04T11:52:41.118Z,21.58
2018-02-04T11:55:08.692Z,23.57
2018-02-04T11:57:36.274Z,14.80
2018-02-04T12:00:03.882Z,13.95
2018-02-04T12:02:31.461Z,15.47
2018-02-04T12:04:59.077Z,16.80
2018-02-04T12:07:26.749Z,21.48
2018-02-04T12:09:54.404Z,15.40
2018-02-04T12:12:21.993Z,20.48
2018-02-04T12:14:49.674Z,18.50
2018-02-04T12:17:17.288Z,14.57
2018-02-04T12:19:44.862Z,12.10
2018-02-04T12:22:12.450Z,16.30
2018-02-04T12:24:40.318Z,13.63
2018-02-04T12:27:07.954Z,16.20
2018-02-04T12:29:35.558Z,12.53
2018-02-04T12:32:03.140Z,12.10
2018-02-04T12:34:30.751Z,12.10
2018-02-04T12:36:58.306Z,11.85
2018-02-04T12:39:25.914Z,11.83
2018-02-04T12:41:53.503Z,11.90
2018-02-04T12:44:21.066Z,13.90
2018-02-04T12:46:48.728Z,10.13
2018-02-04T12:49:16.282Z,14.83
2018-02-04T12:51:43.859Z,10.30
2018-02-04T12:54:11.510Z,12.60
2018-02-04T12:56:39.118Z,13.83
2018-02-04T12:59:07.494Z,10.60
2018-02-04T13:01:35.861Z,11.03
2018-02-04T13:04:04.214Z,17.02
2018-02-04T13:06:31.814Z,14.02
2018-02-04T13:09:00.279Z,12.75
2018-02-04T13:11:28.642Z,13.68
2018-02-04T13:13:57.075Z,13.90
2018-02-04T13:16:24.666Z,8.10
2018-02-04T13:18:52.226Z,10.75
2018-02-04T13:21:19.851Z,15.98
2018-02-04T13:23:47.425Z,15.05
2018-02-04T13:26:15.027Z,13.38
2018-02-04T13:28:42.803Z,15.15
2018-02-04T13:31:11.145Z,15.50
2018-02-04T13:33:38.734Z,15.52
2018-02-04T13:36:07.066Z,18.20
2018-02-04T13:38:34.688Z,9.18
2018-02-04T13:41:02.995Z,6.80
2018-02-04T13:43:30.552Z,6.95
2018-02-04T13:45:58.166Z,4.93
2018-02-04T13:48:26.510Z,5.18
2018-02-04T13:50:54.099Z,5.93
2018-02-04T13:53:22.441Z,5.78
2018-02-04T13:55:50.135Z,6.05
2018-02-04T13:58:17.702Z,5.43
2018-02-04T14:00:46.056Z,5.75
2018-02-04T14:03:13.640Z,4.55
2018-02-04T14:05:41.982Z,4.28
2018-02-04T14:08:09.580Z,5.45
2018-02-04T14:10:38.056Z,4.68
2018-02-04T14:13:06.391Z,4.90
2018-02-04T14:15:34.135Z,7.20
2018-02-04T14:18:01.711Z,4.20
2018-02-04T14:20:29.402Z,5.37
2018-02-04T14:22:56.966Z,4.90
2018-02-04T14:25:25.467Z,5.18
2018-02-04T14:27:53.138Z,5.50
2018-02-04T14:30:20.845Z,4.87
2018-02-04T14:32:48.412Z,5.25
2018-02-04T14:35:16.027Z,4.30
2018-02-04T14:37:43.595Z,5.22
2018-02-04T14:40:11.152Z,6.03
2018-02-04T14:42:38.758Z,5.68
2018-02-04T14:45:06.332Z,6.35
2018-02-04T14:47:34.694Z,6.30
2018-02-04T14:50:02.373Z,6.65
2018-02-04T14:52:29.982Z,6.70
2018-02-04T14:54:57.554Z,6.37
2018-02-04T14:57:25.163Z,8.65
2018-02-04T14:59:52.723Z,6.32
2018-02-04T15:02:20.362Z,8.85
2018-02-04T15:04:48.750Z,10.68
2018-02-04T15:07:17.109Z,9.35
2018-02-04T15:09:45.530Z,12.93
2018-02-04T15:12:13.113Z,10.52
2018-02-04T15:14:40.722Z,9.80
2018-02-04T15:17:09.058Z,10.68
2018-02-04T15:19:36.682Z,11.25
2018-02-04T15:22:04.243Z,11.05
2018-02-04T15:24:31.936Z,11.50
2018-02-04T15:26:59.508Z,9.73
2018-02-04T15:29:27.864Z,8.80
2018-02-04T15:31:55.478Z,10.15
2018-02-04T15:34:23.217Z,10.32
2018-02-04T15:36:50.827Z,9.82
2018-02-04T15:39:18.394Z,7.72
2018-02-04T15:41:46.004Z,10.20
2018-02-04T15:44:14.345Z,12.20
2018-02-04T15:46:41.963Z,14.85
2018-02-04T15:49:09.696Z,13.38
2018-02-04T15:51:38.042Z,11.32
2018-02-04T15:54:05.677Z,12.63
2018-02-04T15:56:33.341Z,12.50
2018-02-04T15:59:00.944Z,14.75
2018-02-04T16:01:28.677Z,12.45
2018-02-04T16:03:56.388Z,11.75
2018-02-04T16:06:24.746Z,15.32
2018-02-04T16:08:52.344Z,13.52
2018-02-04T16:11:19.987Z,19.27
2018-02-04T16:13:48.359Z,16.65
2018-02-04T16:16:16.739Z,19.75
2018-02-04T16:18:45.126Z,18.87
2018-02-04T16:21:12.714Z,18.35
2018-02-04T16:23:40.279Z,19.23
2018-02-04T16:26:07.875Z,18.05
2018-02-04T16:28:35.438Z,18.67
2018-02-04T16:31:03.063Z,17.77
2018-02-04T16:33:30.679Z,18.33
2018-02-04T16:35:58.286Z,23.05
2018-02-04T16:38:25.882Z,22.20
2018-02-04T16:40:54.240Z,23.10
2018-02-04T16:43:21.898Z,19.58
2018-02-04T16:45:49.603Z,22.90
2018-02-04T16:48:17.195Z,22.55
2018-02-04T16:50:44.762Z,22.58
2018-02-04T16:53:12.365Z,24.87
2018-02-04T16:55:40.894Z,20.12
2018-02-04T16:58:08.514Z,21.10
2018-02-04T17:00:36.089Z,23.00
2018-02-04T17:03:03.671Z,21.00
2018-02-04T17:05:31.268Z,21.75
2018-02-04T17:07:59.630Z,18.65
2018-02-04T17:10:27.308Z,22.65
2018-02-04T17:12:55.645Z,16.58
2018-02-04T17:15:23.286Z,19.17
2018-02-04T17:17:50.867Z,21.17
2018-02-04T17:20:18.474Z,22.80
2018-02-04T17:22:46.851Z,19.50
2018-02-04T17:25:15.198Z,18.42
2018-02-04T17:27:42.818Z,21.30
2018-02-04T17:30:10.382Z,18.73
2018-02-04T17:32:38.023Z,19.95
2018-02-04T17:35:05.655Z,20.27
2018-02-04T17:37:33.271Z,22.50
2018-02-04T17:40:00.886Z,21.30
2018-02-04T17:42:29.254Z,25.55
2018-02-04T17:44:57.797Z,28.45
2018-02-04T17:47:25.362Z,21.42
2018-02-04T17:49:53.894Z,22.27
2018-02-04T17:52:21.485Z,21.90
2018-02-04T17:54:49.101Z,23.05
2018-02-04T17:57:17.478Z,28.75
2018-02-04T17:59:45.827Z,23.87
2018-02-04T18:02:13.448Z,24.20
2018-02-04T18:04:41.009Z,24.65
2018-02-04T18:07:08.603Z,27.92
2018-02-04T18:09:36.185Z,26.23
2018-02-04T18:12:04.554Z,28.62
2018-02-04T18:14:32.138Z,25.12
2018-02-04T18:16:59.749Z,27.65
2018-02-04T18:19:27.311Z,29.75
2018-02-04T18:21:54.882Z,25.42
2018-02-04T18:24:22.489Z,32.00
2018-02-04T18:26:50.073Z,28.15
2018-02-04T18:29:17.659Z,28.95
2018-02-04T18:31:45.227Z,33.72
2018-02-04T18:34:12.824Z,25.30
2018-02-04T18:36:40.399Z,31.85
2018-02-04T18:39:07.955Z,31.15
2018-02-04T18:41:35.601Z,31.75
2018-02-04T18:44:03.343Z,32.25
2018-02-04T18:46:31.674Z,27.73
2018-02-04T18:48:59.240Z,43.72
2018-02-04T18:51:26.858Z,31.92
2018-02-04T18:53:54.448Z,32.28
2018-02-04T18:56:22.106Z,43.95
2018-02-04T18:58:49.678Z,34.47
2018-02-04T19:01:17.243Z,63.17
2018-02-04T19:03:44.853Z,47.47
2018-02-04T19:06:12.584Z,30.23
2018-02-04T19:08:40.979Z,31.30
2018-02-04T19:11:08.575Z,45.35
2018-02-04T19:13:36.186Z,37.80
2018-02-04T19:16:04.531Z,35.33
2018-02-04T19:18:32.124Z,39.63
2018-02-04T19:21:00.456Z,40.50
2018-02-04T19:23:28.028Z,37.22
2018-02-04T19:25:55.671Z,40.12
2018-02-04T19:28:23.294Z,41.20
2018-02-04T19:30:50.893Z,40.97
2018-02-04T19:33:18.503Z,33.55
2018-02-04T19:35:46.963Z,35.65
2018-02-04T19:38:14.603Z,34.90
2018-02-04T19:40:42.207Z,31.70
2018-02-04T19:43:09.757Z,34.80
2018-02-04T19:45:38.187Z,32.90
2018-02-04T19:48:05.763Z,29.05
2018-02-04T19:50:33.413Z,39.10
2018-02-04T19:53:01.014Z,33.47
2018-02-04T19:55:29.354Z,31.62
2018-02-04T19:57:57.098Z,32.67
2018-02-04T20:00:24.656Z,36.67
2018-02-04T20:02:52.219Z,35.15
2018-02-04T20:05:19.831Z,35.55
2018-02-04T20:07:48.174Z,35.35
2018-02-04T20:10:15.800Z,32.72
2018-02-04T20:12:43.361Z,33.10
2018-02-04T20:15:10.992Z,33.90
2018-02-04T20:17:38.567Z,40.05
2018-02-04T20:20:06.203Z,37.15
2018-02-04T20:22:34.620Z,36.35
2018-02-04T20:25:02.215Z,36.47
2018-02-04T20:27:29.836Z,37.45
2018-02-04T20:29:57.616Z,35.45
2018-02-04T20:32:37.138Z,36.15
2018-02-04T20:35:04.720Z,37.53
2018-02-04T20:37:32.339Z,41.22
2018-02-04T20:40:00.025Z,35.45
2018-02-04T20:42:27.648Z,45.17
2018-02-04T20:44:55.234Z,49.85
2018-02-04T20:47:23.193Z,45.95
2018-02-04T20:49:50.793Z,43.55
2018-02-04T20:52:18.384Z,47.42
2018-02-04T20:54:46.878Z,35.75
2018-02-04T20:57:14.488Z,34.28
2018-02-04T20:59:42.103Z,31.77
2018-02-04T21:02:09.667Z,42.97
2018-02-04T21:04:37.303Z,42.20
2018-02-04T21:07:05.662Z,44.53
2018-02-04T21:09:33.238Z,45.35
2018-02-04T21:12:01.655Z,40.47
2018-02-04T21:14:29.401Z,41.40
2018-02-04T21:16:57.000Z,37.50
2018-02-04T21:19:24.629Z,42.60
2018-02-04T21:21:53.078Z,41.33
2018-02-04T21:24:21.429Z,42.38
2018-02-04T21:26:49.032Z,48.13
2018-02-04T21:29:16.766Z,43.58
2018-02-04T21:31:45.234Z,43.53
2018-02-04T21:34:12.929Z,48.63
2018-02-04T21:36:40.542Z,40.53
2018-02-04T21:39:08.185Z,47.47
2018-02-04T21:41:35.781Z,45.30
2018-02-04T21:44:03.362Z,47.28
2018-02-04T21:46:30.932Z,50.15
2018-02-04T21:48:58.523Z,45.50
2018-02-04T21:51:26.134Z,48.00
2018-02-04T21:53:54.579Z,49.95
2018-02-04T21:56:22.195Z,44.08
2018-02-04T21:58:49.771Z,46.15
2018-02-04T22:01:17.374Z,49.10
2018-02-04T22:03:45.833Z,45.35
2018-02-04T22:06:13.423Z,43.28
2018-02-04T22:08:41.772Z,44.22
2018-02-04T22:11:09.342Z,40.88
2018-02-04T22:13:36.931Z,43.15
2018-02-04T22:16:04.511Z,53.20
2018-02-04T22:18:32.120Z,40.60
2018-02-04T22:21:00.595Z,44.55
2018-02-04T22:23:28.204Z,45.42
2018-02-04T22:25:55.778Z,48.95
2018-02-04T22:28:23.386Z,38.00
2018-02-04T22:30:51.745Z,45.42
2018-02-04T22:33:19.331Z,45.20
2018-02-04T22:35:47.686Z,39.60
2018-02-04T22:38:15.271Z,47.62
2018-02-04T22:40:43.630Z,51.15
2018-02-04T22:43:11.986Z,44.25
2018-02-04T22:45:39.824Z,52.97
2018-02-04T22:48:07.510Z,53.22
2018-02-04T22:50:35.068Z,48.25
2018-02-04T22:53:02.724Z,43.97
2018-02-04T22:55:30.280Z,51.17
2018-02-04T22:57:57.892Z,42.13
2018-02-04T23:00:25.446Z,43.60
2018-02-04T23:02:53.031Z,49.85
2018-02-04T23:05:20.615Z,47.03
2018-02-04T23:07:48.410Z,45.25
2018-02-04T23:10:16.746Z,49.95
2018-02-04T23:12:44.346Z,48.03
2018-02-04T23:15:12.693Z,47.75
2018-02-04T23:17:40.270Z,44.90
2018-02-04T23:20:08.048Z,52.33
2018-02-04T23:22:36.627Z,45.15
2018-02-04T23:25:05.105Z,52.60
2018-02-04T23:27:33.578Z,48.30
2018-02-04T23:30:01.183Z,50.17
2018-02-04T23:32:28.742Z,52.65
2018-02-04T23:34:56.344Z,46.72
2018-02-04T23:37:23.918Z,46.17
2018-02-04T23:39:52.282Z,51.03
2018-02-04T23:42:20.012Z,47.85
2018-02-04T23:44:47.677Z,56.30
2018-02-04T23:47:15.258Z,46.37
2018-02-04T23:49:42.839Z,57.70
2018-02-04T23:52:11.191Z,48.90
2018-02-04T23:54:38.866Z,59.30
2018-02-04T23:57:06.451Z,55.83
2018-02-04T23:59:34.011Z,46.67
